sensor_id;sensor_type;location;lat;lon;timestamp;P1;durP1;ratioP1;P2;durP2;ratioP2
7179;SDS011;3631;42.152;24.756;2023-08-06T00:00:10;9.52;;;8.52;;
7179;SDS011;3631;42.152;24.756;2023-08-06T00:02:59;14.68;;;8.52;;
7179;SDS011;3631;42.152;24.756;2023-08-06T00:08:49;10.02;;;8.82;;
7179;SDS011;3631;42.152;24.756;2023-08-06T00:11:34;12.75;;;8.85;;
7179;SDS011;3631;42.152;24.756;2023-08-06T00:14:26;10.55;;;9.35;;
7179;SDS011;3631;42.152;24.756;2023-08-06T00:17:17;14.25;;;9.32;;
7179;SDS011;3631;42.152;24.756;2023-08-06T00:20:01;9.85;;;8.90;;
7179;SDS011;3631;42.152;24.756;2023-08-06T00:22:48;9.57;;;8.65;;
7179;SDS011;3631;42.152;24.756;2023-08-06T00:25:26;14.80;;;9.25;;
7179;SDS011;3631;42.152;24.756;2023-08-06T00:28:07;12.27;;;9.23;;
7179;SDS011;3631;42.152;24.756;2023-08-06T00:30:58;14.30;;;9.45;;
7179;SDS011;3631;42.152;24.756;2023-08-06T00:33:43;10.07;;;8.93;;
7179;SDS011;3631;42.152;24.756;2023-08-06T00:36:29;10.75;;;9.75;;
7179;SDS011;3631;42.152;24.756;2023-08-06T00:39:07;10.57;;;9.55;;
7179;SDS011;3631;42.152;24.756;2023-08-06T00:41:45;11.40;;;10.15;;
7179;SDS011;3631;42.152;24.756;2023-08-06T00:44:26;10.88;;;9.57;;
7179;SDS011;3631;42.152;24.756;2023-08-06T00:47:21;11.43;;;10.10;;
7179;SDS011;3631;42.152;24.756;2023-08-06T00:50:15;14.30;;;10.40;;
7179;SDS011;3631;42.152;24.756;2023-08-06T00:53:13;10.27;;;9.25;;
7179;SDS011;3631;42.152;24.756;2023-08-06T00:56:00;11.30;;;9.73;;
7179;SDS011;3631;42.152;24.756;2023-08-06T00:58:56;10.82;;;9.73;;
7179;SDS011;3631;42.152;24.756;2023-08-06T01:01:33;12.35;;;10.07;;
7179;SDS011;3631;42.152;24.756;2023-08-06T01:04:22;12.32;;;10.35;;
7179;SDS011;3631;42.152;24.756;2023-08-06T01:07:03;12.80;;;10.35;;
7179;SDS011;3631;42.152;24.756;2023-08-06T01:09:57;11.90;;;10.57;;
7179;SDS011;3631;42.152;24.756;2023-08-06T01:12:55;11.57;;;9.88;;
7179;SDS011;3631;42.152;24.756;2023-08-06T01:15:41;11.90;;;10.63;;
7179;SDS011;3631;42.152;24.756;2023-08-06T01:18:26;11.52;;;10.40;;
7179;SDS011;3631;42.152;24.756;2023-08-06T01:21:05;10.80;;;9.80;;
7179;SDS011;3631;42.152;24.756;2023-08-06T01:23:55;12.05;;;10.48;;
7179;SDS011;3631;42.152;24.756;2023-08-06T01:26:30;12.15;;;10.70;;
7179;SDS011;3631;42.152;24.756;2023-08-06T01:29:18;16.42;;;10.93;;
7179;SDS011;3631;42.152;24.756;2023-08-06T01:31:58;11.40;;;10.25;;
7179;SDS011;3631;42.152;24.756;2023-08-06T01:34:47;13.73;;;10.30;;
7179;SDS011;3631;42.152;24.756;2023-08-06T01:37:33;12.02;;;10.10;;
7179;SDS011;3631;42.152;24.756;2023-08-06T01:40:12;11.18;;;10.15;;
7179;SDS011;3631;42.152;24.756;2023-08-06T01:43:00;11.95;;;10.88;;
7179;SDS011;3631;42.152;24.756;2023-08-06T01:45:38;13.05;;;10.75;;
7179;SDS011;3631;42.152;24.756;2023-08-06T01:48:19;16.30;;;10.45;;
7179;SDS011;3631;42.152;24.756;2023-08-06T01:51:01;11.45;;;10.30;;
7179;SDS011;3631;42.152;24.756;2023-08-06T01:53:50;11.02;;;9.82;;
7179;SDS011;3631;42.152;24.756;2023-08-06T01:56:34;13.43;;;10.65;;
7179;SDS011;3631;42.152;24.756;2023-08-06T01:59:30;12.23;;;10.07;;
7179;SDS011;3631;42.152;24.756;2023-08-06T02:02:12;12.25;;;9.82;;
7179;SDS011;3631;42.152;24.756;2023-08-06T02:05:10;12.38;;;11.18;;
7179;SDS011;3631;42.152;24.756;2023-08-06T02:07:58;14.73;;;10.98;;
7179;SDS011;3631;42.152;24.756;2023-08-06T02:13:37;12.02;;;10.93;;
7179;SDS011;3631;42.152;24.756;2023-08-06T02:16:23;13.30;;;11.27;;
7179;SDS011;3631;42.152;24.756;2023-08-06T02:19:22;11.57;;;10.52;;
7179;SDS011;3631;42.152;24.756;2023-08-06T02:22:12;15.70;;;10.93;;
7179;SDS011;3631;42.152;24.756;2023-08-06T02:25:05;11.77;;;10.68;;
7179;SDS011;3631;42.152;24.756;2023-08-06T02:27:57;14.63;;;10.30;;
7179;SDS011;3631;42.152;24.756;2023-08-06T02:30:51;11.85;;;10.88;;
7179;SDS011;3631;42.152;24.756;2023-08-06T02:33:35;12.48;;;9.95;;
7179;SDS011;3631;42.152;24.756;2023-08-06T02:36:36;12.60;;;11.20;;
7179;SDS011;3631;42.152;24.756;2023-08-06T02:39:23;14.57;;;11.73;;
7179;SDS011;3631;42.152;24.756;2023-08-06T02:42:03;13.07;;;11.70;;
7179;SDS011;3631;42.152;24.756;2023-08-06T02:44:49;13.40;;;11.60;;
7179;SDS011;3631;42.152;24.756;2023-08-06T02:47:28;15.68;;;11.73;;
7179;SDS011;3631;42.152;24.756;2023-08-06T02:50:10;14.50;;;12.35;;
7179;SDS011;3631;42.152;24.756;2023-08-06T02:52:51;14.25;;;12.77;;
7179;SDS011;3631;42.152;24.756;2023-08-06T02:55:44;13.10;;;11.95;;
7179;SDS011;3631;42.152;24.756;2023-08-06T02:58:35;16.50;;;12.90;;
7179;SDS011;3631;42.152;24.756;2023-08-06T03:01:18;14.90;;;13.32;;
7179;SDS011;3631;42.152;24.756;2023-08-06T03:04:14;15.15;;;13.60;;
7179;SDS011;3631;42.152;24.756;2023-08-06T03:07:04;15.43;;;13.82;;
7179;SDS011;3631;42.152;24.756;2023-08-06T03:09:46;15.35;;;13.73;;
7179;SDS011;3631;42.152;24.756;2023-08-06T03:12:38;17.02;;;14.63;;
7179;SDS011;3631;42.152;24.756;2023-08-06T03:15:26;17.08;;;14.50;;
7179;SDS011;3631;42.152;24.756;2023-08-06T03:18:06;16.55;;;14.57;;
7179;SDS011;3631;42.152;24.756;2023-08-06T03:21:02;16.42;;;14.85;;
7179;SDS011;3631;42.152;24.756;2023-08-06T03:23:41;16.77;;;15.07;;
7179;SDS011;3631;42.152;24.756;2023-08-06T03:26:34;17.15;;;15.75;;
7179;SDS011;3631;42.152;24.756;2023-08-06T03:29:22;18.27;;;15.70;;
7179;SDS011;3631;42.152;24.756;2023-08-06T03:32:04;20.23;;;16.95;;
7179;SDS011;3631;42.152;24.756;2023-08-06T03:35:01;22.38;;;18.85;;
7179;SDS011;3631;42.152;24.756;2023-08-06T03:37:48;21.00;;;18.45;;
7179;SDS011;3631;42.152;24.756;2023-08-06T03:40:34;20.17;;;18.00;;
7179;SDS011;3631;42.152;24.756;2023-08-06T03:43:10;23.83;;;18.65;;
7179;SDS011;3631;42.152;24.756;2023-08-06T03:45:52;25.35;;;20.75;;
7179;SDS011;3631;42.152;24.756;2023-08-06T03:48:27;21.60;;;19.60;;
7179;SDS011;3631;42.152;24.756;2023-08-06T03:51:11;20.65;;;18.60;;
7179;SDS011;3631;42.152;24.756;2023-08-06T03:53:44;21.52;;;19.48;;
7179;SDS011;3631;42.152;24.756;2023-08-06T03:56:25;22.17;;;19.88;;
7179;SDS011;3631;42.152;24.756;2023-08-06T03:59:13;22.75;;;19.80;;
7179;SDS011;3631;42.152;24.756;2023-08-06T04:01:56;24.33;;;20.33;;
7179;SDS011;3631;42.152;24.756;2023-08-06T04:04:34;32.10;;;21.70;;
7179;SDS011;3631;42.152;24.756;2023-08-06T04:07:11;25.98;;;22.35;;
7179;SDS011;3631;42.152;24.756;2023-08-06T04:09:59;29.98;;;22.63;;
7179;SDS011;3631;42.152;24.756;2023-08-06T04:12:43;26.20;;;21.38;;
7179;SDS011;3631;42.152;24.756;2023-08-06T04:15:29;23.92;;;21.40;;
7179;SDS011;3631;42.152;24.756;2023-08-06T04:18:22;29.92;;;23.15;;
7179;SDS011;3631;42.152;24.756;2023-08-06T04:21:02;24.73;;;22.15;;
7179;SDS011;3631;42.152;24.756;2023-08-06T04:23:52;24.38;;;21.88;;
7179;SDS011;3631;42.152;24.756;2023-08-06T04:26:35;22.67;;;20.40;;
7179;SDS011;3631;42.152;24.756;2023-08-06T04:29:13;33.38;;;21.02;;
7179;SDS011;3631;42.152;24.756;2023-08-06T04:31:40;27.08;;;21.42;;
7179;SDS011;3631;42.152;24.756;2023-08-06T04:34:13;26.88;;;21.08;;
7179;SDS011;3631;42.152;24.756;2023-08-06T04:36:50;22.88;;;20.30;;
7179;SDS011;3631;42.152;24.756;2023-08-06T04:39:24;31.45;;;22.42;;
7179;SDS011;3631;42.152;24.756;2023-08-06T04:41:59;31.02;;;23.67;;
7179;SDS011;3631;42.152;24.756;2023-08-06T04:44:31;30.17;;;22.60;;
7179;SDS011;3631;42.152;24.756;2023-08-06T04:47:02;27.38;;;22.15;;
7179;SDS011;3631;42.152;24.756;2023-08-06T04:49:30;25.80;;;23.08;;
7179;SDS011;3631;42.152;24.756;2023-08-06T04:52:01;30.88;;;24.83;;
7179;SDS011;3631;42.152;24.756;2023-08-06T04:54:34;28.33;;;24.75;;
7179;SDS011;3631;42.152;24.756;2023-08-06T04:57:03;29.38;;;25.58;;
7179;SDS011;3631;42.152;24.756;2023-08-06T04:59:41;30.90;;;24.73;;
7179;SDS011;3631;42.152;24.756;2023-08-06T05:02:26;31.63;;;25.80;;
7179;SDS011;3631;42.152;24.756;2023-08-06T05:05:09;32.90;;;26.98;;
7179;SDS011;3631;42.152;24.756;2023-08-06T05:07:47;31.85;;;26.73;;
7179;SDS011;3631;42.152;24.756;2023-08-06T05:10:25;29.48;;;26.23;;
7179;SDS011;3631;42.152;24.756;2023-08-06T05:12:56;30.55;;;26.75;;
7179;SDS011;3631;42.152;24.756;2023-08-06T05:15:26;28.70;;;25.70;;
7179;SDS011;3631;42.152;24.756;2023-08-06T05:17:54;31.98;;;26.42;;
7179;SDS011;3631;42.152;24.756;2023-08-06T05:20:21;29.20;;;25.70;;
7179;SDS011;3631;42.152;24.756;2023-08-06T05:23:03;30.75;;;26.33;;
7179;SDS011;3631;42.152;24.756;2023-08-06T05:25:55;30.48;;;26.13;;
7179;SDS011;3631;42.152;24.756;2023-08-06T05:28:32;28.65;;;25.80;;
7179;SDS011;3631;42.152;24.756;2023-08-06T05:31:08;28.48;;;25.58;;
7179;SDS011;3631;42.152;24.756;2023-08-06T05:33:44;33.28;;;25.67;;
7179;SDS011;3631;42.152;24.756;2023-08-06T05:36:16;26.95;;;24.08;;
7179;SDS011;3631;42.152;24.756;2023-08-06T05:38:51;35.65;;;22.25;;
7179;SDS011;3631;42.152;24.756;2023-08-06T05:41:21;26.42;;;19.48;;
7179;SDS011;3631;42.152;24.756;2023-08-06T05:43:51;22.08;;;19.45;;
7179;SDS011;3631;42.152;24.756;2023-08-06T05:46:41;25.42;;;19.88;;
7179;SDS011;3631;42.152;24.756;2023-08-06T05:49:34;23.20;;;17.05;;
7179;SDS011;3631;42.152;24.756;2023-08-06T05:52:23;19.90;;;14.98;;
7179;SDS011;3631;42.152;24.756;2023-08-06T05:55:16;17.20;;;14.82;;
7179;SDS011;3631;42.152;24.756;2023-08-06T05:58:05;16.75;;;12.25;;
7179;SDS011;3631;42.152;24.756;2023-08-06T06:00:55;13.38;;;10.95;;
7179;SDS011;3631;42.152;24.756;2023-08-06T06:03:35;15.07;;;11.07;;
7179;SDS011;3631;42.152;24.756;2023-08-06T06:06:37;18.58;;;10.27;;
7179;SDS011;3631;42.152;24.756;2023-08-06T06:09:24;11.75;;;10.25;;
7179;SDS011;3631;42.152;24.756;2023-08-06T06:12:19;16.83;;;10.10;;
7179;SDS011;3631;42.152;24.756;2023-08-06T06:15:12;14.73;;;10.15;;
7179;SDS011;3631;42.152;24.756;2023-08-06T06:17:58;12.10;;;10.35;;
7179;SDS011;3631;42.152;24.756;2023-08-06T06:20:47;15.05;;;13.55;;
7179;SDS011;3631;42.152;24.756;2023-08-06T06:23:43;14.77;;;11.90;;
7179;SDS011;3631;42.152;24.756;2023-08-06T06:26:42;12.93;;;10.98;;
7179;SDS011;3631;42.152;24.756;2023-08-06T06:29:35;16.42;;;10.50;;
7179;SDS011;3631;42.152;24.756;2023-08-06T06:32:25;10.82;;;9.75;;
7179;SDS011;3631;42.152;24.756;2023-08-06T06:35:23;11.77;;;10.35;;
7179;SDS011;3631;42.152;24.756;2023-08-06T06:38:22;13.32;;;10.93;;
7179;SDS011;3631;42.152;24.756;2023-08-06T06:41:21;12.18;;;10.60;;
7179;SDS011;3631;42.152;24.756;2023-08-06T06:44:16;14.02;;;10.00;;
7179;SDS011;3631;42.152;24.756;2023-08-06T06:46:47;11.88;;;10.45;;
7179;SDS011;3631;42.152;24.756;2023-08-06T06:49:26;12.95;;;11.02;;
7179;SDS011;3631;42.152;24.756;2023-08-06T06:51:56;12.73;;;11.43;;
7179;SDS011;3631;42.152;24.756;2023-08-06T06:54:26;12.32;;;11.18;;
7179;SDS011;3631;42.152;24.756;2023-08-06T06:57:07;29.33;;;25.42;;
7179;SDS011;3631;42.152;24.756;2023-08-06T06:59:45;15.52;;;13.85;;
7179;SDS011;3631;42.152;24.756;2023-08-06T07:02:23;12.27;;;10.30;;
7179;SDS011;3631;42.152;24.756;2023-08-06T07:05:11;11.48;;;10.38;;
7179;SDS011;3631;42.152;24.756;2023-08-06T07:08:00;11.98;;;10.82;;
7179;SDS011;3631;42.152;24.756;2023-08-06T07:10:40;14.13;;;11.70;;
7179;SDS011;3631;42.152;24.756;2023-08-06T07:13:28;21.75;;;17.08;;
7179;SDS011;3631;42.152;24.756;2023-08-06T07:16:14;13.32;;;11.82;;
7179;SDS011;3631;42.152;24.756;2023-08-06T07:19:10;11.55;;;10.45;;
7179;SDS011;3631;42.152;24.756;2023-08-06T07:22:06;15.38;;;11.60;;
7179;SDS011;3631;42.152;24.756;2023-08-06T07:24:49;16.98;;;15.00;;
7179;SDS011;3631;42.152;24.756;2023-08-06T07:27:17;17.80;;;12.30;;
7179;SDS011;3631;42.152;24.756;2023-08-06T07:30:00;10.80;;;9.75;;
7179;SDS011;3631;42.152;24.756;2023-08-06T07:32:46;266.40;;;33.55;;
7179;SDS011;3631;42.152;24.756;2023-08-06T07:35:24;28.67;;;12.57;;
7179;SDS011;3631;42.152;24.756;2023-08-06T07:38:18;56.78;;;14.77;;
7179;SDS011;3631;42.152;24.756;2023-08-06T07:41:07;73.40;;;16.38;;
7179;SDS011;3631;42.152;24.756;2023-08-06T07:44:01;91.38;;;21.27;;
7179;SDS011;3631;42.152;24.756;2023-08-06T07:46:49;70.25;;;16.42;;
7179;SDS011;3631;42.152;24.756;2023-08-06T07:49:21;86.95;;;18.58;;
7179;SDS011;3631;42.152;24.756;2023-08-06T07:52:06;26.30;;;14.23;;
7179;SDS011;3631;42.152;24.756;2023-08-06T07:54:55;26.98;;;14.48;;
7179;SDS011;3631;42.152;24.756;2023-08-06T07:57:34;90.50;;;20.00;;
7179;SDS011;3631;42.152;24.756;2023-08-06T08:00:10;35.20;;;15.20;;
7179;SDS011;3631;42.152;24.756;2023-08-06T08:02:51;16.40;;;14.27;;
7179;SDS011;3631;42.152;24.756;2023-08-06T08:05:33;14.70;;;13.05;;
7179;SDS011;3631;42.152;24.756;2023-08-06T08:08:26;19.00;;;15.60;;
7179;SDS011;3631;42.152;24.756;2023-08-06T08:11:25;18.48;;;14.10;;
7179;SDS011;3631;42.152;24.756;2023-08-06T08:14:20;16.08;;;13.27;;
7179;SDS011;3631;42.152;24.756;2023-08-06T08:17:25;20.08;;;14.18;;
7179;SDS011;3631;42.152;24.756;2023-08-06T08:20:12;15.88;;;14.48;;
7179;SDS011;3631;42.152;24.756;2023-08-06T08:22:49;19.02;;;14.20;;
7179;SDS011;3631;42.152;24.756;2023-08-06T08:25:29;15.70;;;14.13;;
7179;SDS011;3631;42.152;24.756;2023-08-06T08:28:32;15.77;;;13.68;;
7179;SDS011;3631;42.152;24.756;2023-08-06T08:31:09;14.50;;;13.20;;
7179;SDS011;3631;42.152;24.756;2023-08-06T08:33:57;16.13;;;14.13;;
7179;SDS011;3631;42.152;24.756;2023-08-06T08:36:43;16.33;;;14.15;;
7179;SDS011;3631;42.152;24.756;2023-08-06T08:39:36;16.33;;;14.73;;
7179;SDS011;3631;42.152;24.756;2023-08-06T08:42:35;17.02;;;15.25;;
7179;SDS011;3631;42.152;24.756;2023-08-06T08:45:41;16.77;;;14.27;;
7179;SDS011;3631;42.152;24.756;2023-08-06T08:48:33;27.15;;;18.35;;
7179;SDS011;3631;42.152;24.756;2023-08-06T08:51:15;17.35;;;15.57;;
7179;SDS011;3631;42.152;24.756;2023-08-06T08:53:49;18.65;;;15.60;;
7179;SDS011;3631;42.152;24.756;2023-08-06T08:56:41;16.80;;;15.20;;
7179;SDS011;3631;42.152;24.756;2023-08-06T08:59:20;17.05;;;15.45;;
7179;SDS011;3631;42.152;24.756;2023-08-06T09:01:58;19.23;;;17.38;;
7179;SDS011;3631;42.152;24.756;2023-08-06T09:04:46;21.30;;;18.42;;
7179;SDS011;3631;42.152;24.756;2023-08-06T09:07:30;33.50;;;27.80;;
7179;SDS011;3631;42.152;24.756;2023-08-06T09:10:12;17.23;;;14.63;;
7179;SDS011;3631;42.152;24.756;2023-08-06T09:13:04;15.15;;;13.63;;
7179;SDS011;3631;42.152;24.756;2023-08-06T09:15:49;17.73;;;14.55;;
7179;SDS011;3631;42.152;24.756;2023-08-06T09:18:32;14.23;;;12.88;;
7179;SDS011;3631;42.152;24.756;2023-08-06T09:21:03;16.95;;;15.32;;
7179;SDS011;3631;42.152;24.756;2023-08-06T09:23:38;12.15;;;11.15;;
7179;SDS011;3631;42.152;24.756;2023-08-06T09:26:11;13.98;;;12.77;;
7179;SDS011;3631;42.152;24.756;2023-08-06T09:28:42;9.93;;;9.10;;
7179;SDS011;3631;42.152;24.756;2023-08-06T09:31:20;9.75;;;8.48;;
7179;SDS011;3631;42.152;24.756;2023-08-06T09:34:14;9.30;;;8.50;;
7179;SDS011;3631;42.152;24.756;2023-08-06T09:36:56;7.55;;;7.05;;
7179;SDS011;3631;42.152;24.756;2023-08-06T09:39:44;11.65;;;10.55;;
7179;SDS011;3631;42.152;24.756;2023-08-06T09:42:31;6.45;;;6.05;;
7179;SDS011;3631;42.152;24.756;2023-08-06T09:45:22;6.00;;;5.60;;
7179;SDS011;3631;42.152;24.756;2023-08-06T09:48:19;7.38;;;6.97;;
7179;SDS011;3631;42.152;24.756;2023-08-06T09:51:15;6.50;;;5.93;;
7179;SDS011;3631;42.152;24.756;2023-08-06T09:54:03;6.15;;;5.25;;
7179;SDS011;3631;42.152;24.756;2023-08-06T09:56:48;6.10;;;5.70;;
7179;SDS011;3631;42.152;24.756;2023-08-06T09:59:40;9.30;;;8.55;;
7179;SDS011;3631;42.152;24.756;2023-08-06T10:02:33;7.00;;;6.40;;
7179;SDS011;3631;42.152;24.756;2023-08-06T10:05:10;5.55;;;5.18;;
7179;SDS011;3631;42.152;24.756;2023-08-06T10:07:45;6.82;;;6.43;;
7179;SDS011;3631;42.152;24.756;2023-08-06T10:10:18;7.53;;;6.90;;
7179;SDS011;3631;42.152;24.756;2023-08-06T10:12:51;8.55;;;8.02;;
7179;SDS011;3631;42.152;24.756;2023-08-06T10:15:29;9.23;;;8.48;;
7179;SDS011;3631;42.152;24.756;2023-08-06T10:18:19;7.90;;;7.32;;
7179;SDS011;3631;42.152;24.756;2023-08-06T10:20:59;8.65;;;8.15;;
7179;SDS011;3631;42.152;24.756;2023-08-06T10:23:53;20.85;;;9.18;;
7179;SDS011;3631;42.152;24.756;2023-08-06T10:26:44;8.73;;;8.13;;
7179;SDS011;3631;42.152;24.756;2023-08-06T10:29:42;6.93;;;6.43;;
7179;SDS011;3631;42.152;24.756;2023-08-06T10:35:34;7.15;;;6.78;;
7179;SDS011;3631;42.152;24.756;2023-08-06T10:38:03;7.50;;;7.10;;
7179;SDS011;3631;42.152;24.756;2023-08-06T10:40:36;7.20;;;6.80;;
7179;SDS011;3631;42.152;24.756;2023-08-06T10:43:07;6.63;;;6.32;;
7179;SDS011;3631;42.152;24.756;2023-08-06T10:45:53;7.65;;;7.07;;
7179;SDS011;3631;42.152;24.756;2023-08-06T10:48:37;12.45;;;11.45;;
7179;SDS011;3631;42.152;24.756;2023-08-06T10:51:43;8.20;;;7.80;;
7179;SDS011;3631;42.152;24.756;2023-08-06T10:54:38;8.23;;;7.72;;
7179;SDS011;3631;42.152;24.756;2023-08-06T10:57:18;8.63;;;7.90;;
7179;SDS011;3631;42.152;24.756;2023-08-06T10:59:53;14.20;;;8.15;;
7179;SDS011;3631;42.152;24.756;2023-08-06T11:02:44;9.00;;;8.18;;
7179;SDS011;3631;42.152;24.756;2023-08-06T11:05:27;12.90;;;11.95;;
7179;SDS011;3631;42.152;24.756;2023-08-06T11:08:01;9.60;;;8.13;;
7179;SDS011;3631;42.152;24.756;2023-08-06T11:10:37;7.82;;;7.22;;
7179;SDS011;3631;42.152;24.756;2023-08-06T11:13:11;7.50;;;6.95;;
7179;SDS011;3631;42.152;24.756;2023-08-06T11:15:50;6.97;;;6.47;;
7179;SDS011;3631;42.152;24.756;2023-08-06T11:18:29;7.78;;;7.10;;
7179;SDS011;3631;42.152;24.756;2023-08-06T11:21:05;6.60;;;5.88;;
7179;SDS011;3631;42.152;24.756;2023-08-06T11:23:41;6.57;;;6.00;;
7179;SDS011;3631;42.152;24.756;2023-08-06T11:26:28;13.38;;;12.20;;
7179;SDS011;3631;42.152;24.756;2023-08-06T11:29:12;7.13;;;6.53;;
7179;SDS011;3631;42.152;24.756;2023-08-06T11:31:53;8.10;;;7.70;;
7179;SDS011;3631;42.152;24.756;2023-08-06T11:34:38;7.05;;;6.47;;
7179;SDS011;3631;42.152;24.756;2023-08-06T11:37:19;8.13;;;7.43;;
7179;SDS011;3631;42.152;24.756;2023-08-06T11:39:56;6.40;;;6.00;;
7179;SDS011;3631;42.152;24.756;2023-08-06T11:42:31;13.52;;;6.53;;
7179;SDS011;3631;42.152;24.756;2023-08-06T11:45:21;5.38;;;5.00;;
7179;SDS011;3631;42.152;24.756;2023-08-06T11:47:57;5.28;;;4.88;;
7179;SDS011;3631;42.152;24.756;2023-08-06T11:50:29;5.30;;;4.95;;
7179;SDS011;3631;42.152;24.756;2023-08-06T11:53:12;5.53;;;5.13;;
7179;SDS011;3631;42.152;24.756;2023-08-06T11:55:52;5.22;;;4.60;;
7179;SDS011;3631;42.152;24.756;2023-08-06T11:58:32;4.90;;;4.18;;
7179;SDS011;3631;42.152;24.756;2023-08-06T12:01:05;4.30;;;4.00;;
7179;SDS011;3631;42.152;24.756;2023-08-06T12:03:45;4.85;;;3.53;;
7179;SDS011;3631;42.152;24.756;2023-08-06T12:06:22;4.35;;;3.63;;
7179;SDS011;3631;42.152;24.756;2023-08-06T12:09:02;3.65;;;3.40;;
7179;SDS011;3631;42.152;24.756;2023-08-06T12:11:45;3.70;;;3.50;;
7179;SDS011;3631;42.152;24.756;2023-08-06T12:14:38;3.67;;;3.40;;
7179;SDS011;3631;42.152;24.756;2023-08-06T12:17:14;3.40;;;3.20;;
7179;SDS011;3631;42.152;24.756;2023-08-06T12:19:44;3.42;;;3.22;;
7179;SDS011;3631;42.152;24.756;2023-08-06T12:22:20;3.47;;;3.28;;
7179;SDS011;3631;42.152;24.756;2023-08-06T12:24:49;4.32;;;3.65;;
7179;SDS011;3631;42.152;24.756;2023-08-06T12:27:19;4.10;;;3.70;;
7179;SDS011;3631;42.152;24.756;2023-08-06T12:29:48;3.00;;;2.80;;
7179;SDS011;3631;42.152;24.756;2023-08-06T12:32:20;3.58;;;3.33;;
7179;SDS011;3631;42.152;24.756;2023-08-06T12:34:52;3.83;;;3.53;;
7179;SDS011;3631;42.152;24.756;2023-08-06T12:37:22;3.50;;;3.17;;
7179;SDS011;3631;42.152;24.756;2023-08-06T12:39:54;3.50;;;3.30;;
7179;SDS011;3631;42.152;24.756;2023-08-06T12:42:24;3.83;;;3.50;;
7179;SDS011;3631;42.152;24.756;2023-08-06T12:45:15;4.25;;;3.53;;
7179;SDS011;3631;42.152;24.756;2023-08-06T12:47:51;4.32;;;3.50;;
7179;SDS011;3631;42.152;24.756;2023-08-06T12:50:25;3.58;;;3.38;;
7179;SDS011;3631;42.152;24.756;2023-08-06T12:52:54;4.82;;;3.85;;
7179;SDS011;3631;42.152;24.756;2023-08-06T12:55:24;5.03;;;3.33;;
7179;SDS011;3631;42.152;24.756;2023-08-06T12:58:01;3.30;;;3.20;;
7179;SDS011;3631;42.152;24.756;2023-08-06T13:00:32;3.53;;;3.30;;
7179;SDS011;3631;42.152;24.756;2023-08-06T13:03:06;3.90;;;3.70;;
7179;SDS011;3631;42.152;24.756;2023-08-06T13:05:39;3.45;;;3.25;;
7179;SDS011;3631;42.152;24.756;2023-08-06T13:08:10;3.55;;;3.25;;
7179;SDS011;3631;42.152;24.756;2023-08-06T13:10:44;3.88;;;3.58;;
7179;SDS011;3631;42.152;24.756;2023-08-06T13:13:17;4.85;;;3.53;;
7179;SDS011;3631;42.152;24.756;2023-08-06T13:15:49;4.68;;;4.30;;
7179;SDS011;3631;42.152;24.756;2023-08-06T13:18:23;3.67;;;3.35;;
7179;SDS011;3631;42.152;24.756;2023-08-06T13:20:53;2.90;;;2.70;;
7179;SDS011;3631;42.152;24.756;2023-08-06T13:23:20;3.90;;;3.70;;
7179;SDS011;3631;42.152;24.756;2023-08-06T13:25:49;3.75;;;3.55;;
7179;SDS011;3631;42.152;24.756;2023-08-06T13:28:18;4.38;;;3.88;;
7179;SDS011;3631;42.152;24.756;2023-08-06T13:30:45;4.30;;;3.90;;
7179;SDS011;3631;42.152;24.756;2023-08-06T13:33:16;4.95;;;4.65;;
7179;SDS011;3631;42.152;24.756;2023-08-06T13:35:54;6.18;;;5.85;;
7179;SDS011;3631;42.152;24.756;2023-08-06T13:38:33;4.65;;;4.35;;
7179;SDS011;3631;42.152;24.756;2023-08-06T13:41:23;4.03;;;3.72;;
7179;SDS011;3631;42.152;24.756;2023-08-06T13:44:02;4.10;;;3.80;;
7179;SDS011;3631;42.152;24.756;2023-08-06T13:46:36;9.20;;;8.40;;
7179;SDS011;3631;42.152;24.756;2023-08-06T13:49:15;3.70;;;3.40;;
7179;SDS011;3631;42.152;24.756;2023-08-06T13:51:51;4.35;;;4.05;;
7179;SDS011;3631;42.152;24.756;2023-08-06T13:54:23;3.45;;;3.10;;
7179;SDS011;3631;42.152;24.756;2023-08-06T13:56:59;3.60;;;2.78;;
7179;SDS011;3631;42.152;24.756;2023-08-06T13:59:44;4.05;;;2.78;;
7179;SDS011;3631;42.152;24.756;2023-08-06T14:02:35;5.88;;;5.43;;
7179;SDS011;3631;42.152;24.756;2023-08-06T14:05:28;4.28;;;2.97;;
7179;SDS011;3631;42.152;24.756;2023-08-06T14:08:14;3.92;;;3.63;;
7179;SDS011;3631;42.152;24.756;2023-08-06T14:10:48;4.20;;;3.90;;
7179;SDS011;3631;42.152;24.756;2023-08-06T14:13:17;3.40;;;3.20;;
7179;SDS011;3631;42.152;24.756;2023-08-06T14:15:45;3.50;;;3.20;;
7179;SDS011;3631;42.152;24.756;2023-08-06T14:18:19;5.38;;;2.90;;
7179;SDS011;3631;42.152;24.756;2023-08-06T14:21:01;3.55;;;3.40;;
7179;SDS011;3631;42.152;24.756;2023-08-06T14:23:45;4.45;;;2.95;;
7179;SDS011;3631;42.152;24.756;2023-08-06T14:26:27;3.45;;;3.15;;
7179;SDS011;3631;42.152;24.756;2023-08-06T14:29:01;5.57;;;3.17;;
7179;SDS011;3631;42.152;24.756;2023-08-06T14:31:34;3.28;;;3.08;;
7179;SDS011;3631;42.152;24.756;2023-08-06T14:34:17;3.33;;;3.13;;
7179;SDS011;3631;42.152;24.756;2023-08-06T14:37:01;3.50;;;3.20;;
7179;SDS011;3631;42.152;24.756;2023-08-06T14:42:51;3.63;;;3.35;;
7179;SDS011;3631;42.152;24.756;2023-08-06T14:45:19;3.40;;;3.10;;
7179;SDS011;3631;42.152;24.756;2023-08-06T14:47:53;3.80;;;3.58;;
7179;SDS011;3631;42.152;24.756;2023-08-06T14:50:35;3.85;;;3.65;;
7179;SDS011;3631;42.152;24.756;2023-08-06T14:53:34;3.88;;;3.65;;
7179;SDS011;3631;42.152;24.756;2023-08-06T14:56:19;4.05;;;3.25;;
7179;SDS011;3631;42.152;24.756;2023-08-06T14:58:57;3.95;;;3.55;;
7179;SDS011;3631;42.152;24.756;2023-08-06T15:01:26;3.80;;;3.42;;
7179;SDS011;3631;42.152;24.756;2023-08-06T15:04:18;3.30;;;3.10;;
7179;SDS011;3631;42.152;24.756;2023-08-06T15:07:00;5.25;;;3.53;;
7179;SDS011;3631;42.152;24.756;2023-08-06T15:09:52;3.78;;;3.53;;
7179;SDS011;3631;42.152;24.756;2023-08-06T15:12:47;3.95;;;3.75;;
7179;SDS011;3631;42.152;24.756;2023-08-06T15:15:41;4.43;;;4.13;;
7179;SDS011;3631;42.152;24.756;2023-08-06T15:18:33;3.17;;;2.97;;
7179;SDS011;3631;42.152;24.756;2023-08-06T15:21:17;3.30;;;3.00;;
7179;SDS011;3631;42.152;24.756;2023-08-06T15:23:54;4.97;;;3.75;;
7179;SDS011;3631;42.152;24.756;2023-08-06T15:26:42;3.08;;;2.92;;
7179;SDS011;3631;42.152;24.756;2023-08-06T15:29:43;4.22;;;3.92;;
7179;SDS011;3631;42.152;24.756;2023-08-06T15:32:41;2.88;;;2.67;;
7179;SDS011;3631;42.152;24.756;2023-08-06T15:35:31;3.40;;;3.20;;
7179;SDS011;3631;42.152;24.756;2023-08-06T15:38:18;4.30;;;2.78;;
7179;SDS011;3631;42.152;24.756;2023-08-06T15:40:55;4.20;;;3.90;;
7179;SDS011;3631;42.152;24.756;2023-08-06T15:43:44;4.13;;;3.92;;
7179;SDS011;3631;42.152;24.756;2023-08-06T15:46:47;4.00;;;3.60;;
7179;SDS011;3631;42.152;24.756;2023-08-06T15:49:46;4.13;;;3.83;;
7179;SDS011;3631;42.152;24.756;2023-08-06T15:52:38;3.50;;;3.20;;
7179;SDS011;3631;42.152;24.756;2023-08-06T15:58:29;2.83;;;2.63;;
7179;SDS011;3631;42.152;24.756;2023-08-06T16:01:14;5.55;;;3.00;;
7179;SDS011;3631;42.152;24.756;2023-08-06T16:03:45;3.30;;;3.10;;
7179;SDS011;3631;42.152;24.756;2023-08-06T16:06:26;4.07;;;3.08;;
7179;SDS011;3631;42.152;24.756;2023-08-06T16:08:54;2.90;;;2.80;;
7179;SDS011;3631;42.152;24.756;2023-08-06T16:11:24;3.75;;;3.55;;
7179;SDS011;3631;42.152;24.756;2023-08-06T16:13:52;5.68;;;3.38;;
7179;SDS011;3631;42.152;24.756;2023-08-06T16:16:21;3.53;;;3.22;;
7179;SDS011;3631;42.152;24.756;2023-08-06T16:18:53;3.25;;;3.05;;
7179;SDS011;3631;42.152;24.756;2023-08-06T16:21:29;3.13;;;2.92;;
7179;SDS011;3631;42.152;24.756;2023-08-06T16:24:03;3.03;;;2.83;;
7179;SDS011;3631;42.152;24.756;2023-08-06T16:26:42;3.03;;;2.92;;
7179;SDS011;3631;42.152;24.756;2023-08-06T16:29:16;3.22;;;2.92;;
7179;SDS011;3631;42.152;24.756;2023-08-06T16:31:47;3.17;;;2.97;;